Latest Weather Observations for She Oaks

IDV60801

Issued at 2:22 pm EST Thursday 18 July 2024 (issued every 10 minutes, with the page automatically refreshed every 10 minutes)

About weather observations | Map of weather stations | Latest weather observations for VIC | Other Formats
Station Details ID: 087168 Name: SHE OAKS Lat: -37.91 Lon: 144.13 Height: 236.7 m
Data from the previous 72 hours. | See also: Recent months at She Oaks
Date/Time
EST
Temp
°C
App
Temp
°C
Dew
Point
°C
Rel
Hum
%
Delta-T
°C
Wind Press
QNH
hPa
Press
MSL
hPa
Rain since
9am
mm
Dir  Spd
km/h
Gust
km/h
Spd
kts
Gust
kts
18/02:00pm 8.9 4.1 2.5 64 2.7 WSW 17 28 9 15 1016.0 1016.3 0.0
18/01:30pm 9.0 4.5 2.3 63 2.9 WSW 15 24 8 13 1015.8 1016.2 0.0
18/01:00pm 8.8 4.7 4.6 75 1.9 W 15 20 8 11 1015.8 1016.2 0.0
18/12:30pm 8.3 4.1 3.9 74 1.9 WSW 15 22 8 12 1016.5 1016.8 0.0
18/12:00pm 8.9 5.6 4.3 73 2.0 WSW 11 17 6 9 1016.6 1016.9 0.0
18/11:30am 8.8 6.1 5.4 79 1.6 WSW 9 17 5 9 1017.0 1017.3 0.0
18/11:00am 8.4 5.7 5.5 82 1.3 SW 9 17 5 9 1017.2 1017.5 0.0
18/10:30am 7.9 5.2 5.5 85 1.1 WSW 9 15 5 8 1017.4 1017.8 0.0
18/10:00am 7.6 4.6 6.1 90 0.7 WSW 11 15 6 8 1017.1 1017.4 0.0
18/09:30am 7.0 4.1 6.7 98 0.1 W 11 19 6 10 1017.2 1017.5 0.0
18/09:00am 6.6 3.3 6.6 100 0.0 W 13 20 7 11 1017.1 1017.4 1.0
18/08:30am 6.2 2.9 6.2 100 0.0 WNW 13 19 7 10 1016.9 1017.2 1.0
18/08:00am 5.8 2.8 5.8 100 0.0 W 11 17 6 9 1016.9 1017.2 1.0
18/07:30am 5.7 2.3 5.7 100 0.0 W 13 19 7 10 1017.0 1017.3 1.0
18/07:00am 5.7 1.9 5.7 100 0.0 W 15 22 8 12 1016.8 1017.1 1.0
18/06:30am 5.4 1.9 5.4 100 0.0 W 13 19 7 10 1016.2 1016.5 1.0
18/06:00am 5.2 1.3 5.2 100 0.0 W 15 22 8 12 1015.7 1016.1 1.0
18/05:30am 5.4 1.9 5.4 100 0.0 W 13 20 7 11 1015.5 1015.9 1.0
18/05:00am 5.5 2.4 5.5 100 0.0 W 11 17 6 9 1015.4 1015.8 1.0
18/04:30am 5.9 2.5 5.9 100 0.0 W 13 17 7 9 1015.3 1015.7 1.0
18/04:00am 6.2 2.5 6.2 100 0.0 W 15 20 8 11 1015.5 1015.9 1.0
18/03:30am 6.3 2.6 6.3 100 0.0 W 15 20 8 11 1015.6 1016.0 1.0
18/03:00am 6.3 2.9 6.0 98 0.1 W 13 20 7 11 1015.6 1016.0 1.0
18/02:30am 6.5 3.4 5.6 94 0.4 WSW 11 17 6 9 1015.6 1016.0 1.0
18/02:00am 6.5 2.7 5.8 95 0.3 W 15 24 8 13 1015.5 1015.9 1.0
18/01:30am 6.6 3.2 5.7 94 0.4 W 13 19 7 10 1015.3 1015.7 1.0
18/01:00am 6.9 3.8 5.7 92 0.5 WSW 11 17 6 9 1015.3 1015.7 1.0
18/12:30am 6.9 3.9 5.8 93 0.5 WSW 11 19 6 10 1015.4 1015.8 1.0
18/12:00am 6.9 3.4 5.4 90 0.7 WSW 13 24 7 13 1015.7 1016.1 1.0
 
Date/Time
EST
Temp
°C
App
Temp
°C
Dew
Point
°C
Rel
Hum
%
Delta-T
°C
Wind Press
QNH
hPa
Press
MSL
hPa
Rain since
9am
mm
Dir  Spd
km/h
Gust
km/h
Spd
kts
Gust
kts
17/11:30pm 6.9 3.2 4.2 83 1.2 WSW 13 20 7 11 1015.7 1016.1 1.0
17/11:00pm 7.7 5.1 4.3 79 1.5 WSW 7 15 4 8 1015.5 1015.9 1.0
17/10:30pm 8.1 5.1 4.3 77 1.7 WSW 9 22 5 12 1015.4 1015.8 1.0
17/10:00pm 8.2 5.3 4.4 77 1.7 WSW 9 15 5 8 1015.4 1015.8 1.0
17/09:30pm 8.2 5.0 5.1 81 1.4 WSW 11 20 6 11 1015.3 1015.7 1.0
17/09:00pm 8.4 5.6 5.3 81 1.4 WSW 9 19 5 10 1015.2 1015.6 1.0
17/08:30pm 8.6 5.6 5.9 83 1.2 WSW 11 17 6 9 1015.1 1015.5 1.0
17/08:00pm 8.7 5.8 6.3 85 1.1 WSW 11 20 6 11 1015.0 1015.4 1.0
17/07:30pm 8.7 6.3 7.0 89 0.8 WSW 9 17 5 9 1014.7 1015.1 1.0
17/07:00pm 9.0 6.7 7.5 90 0.7 SW 9 19 5 10 1014.5 1014.9 1.0
17/06:30pm 9.2 6.5 7.5 89 0.8 SW 11 19 6 10 1014.0 1014.4 1.0
17/06:00pm 9.4 6.1 8.0 91 0.7 SW 15 24 8 13 1013.7 1014.1 1.0
17/05:30pm 9.4 6.6 8.6 95 0.4 SW 13 20 7 11 1013.3 1013.6 1.0
17/05:00pm 10.0 8.3 9.9 99 0.1 SW 9 13 5 7 1012.9 1013.2 1.0
17/04:30pm 10.2 7.8 9.9 98 0.2 S 13 20 7 11 1012.7 1013.0 1.0
17/04:00pm 10.4 8.5 10.4 100 0.0 S 11 17 6 9 1012.5 1012.8 1.0
17/03:30pm 11.3 9.8 10.5 95 0.4 S 9 13 5 7 1012.1 1012.4 1.0
17/03:00pm 11.1 9.7 10.9 99 0.1 S 9 13 5 7 1012.0 1012.3 1.0
17/02:30pm 12.7 11.4 9.9 83 1.5 SW 7 17 4 9 1011.7 1012.0 0.2
17/02:00pm 11.3 10.1 9.7 90 0.8 S 6 9 3 5 1011.8 1012.1 0.2
17/01:30pm 11.0 9.9 9.8 92 0.6 S 6 9 3 5 1012.0 1012.3 0.2
17/01:00pm 11.7 9.0 9.1 84 1.3 SSW 13 17 7 9 1012.3 1012.6 0.0
17/12:30pm 11.9 9.9 10.3 90 0.8 SW 11 20 6 11 1012.4 1012.7 0.0
17/12:00pm 10.7 9.6 10.7 100 0.0 WSW 7 13 4 7 1012.7 1013.0 0.0
17/11:30am 10.8 9.0 10.8 100 0.0 SSW 11 15 6 8 1013.0 1013.3 0.0
17/11:00am 10.6 9.1 10.6 100 0.0 SW 9 17 5 9 1013.3 1013.6 0.0
17/10:30am 10.2 9.2 10.2 100 0.0 WSW 6 9 3 5 1013.3 1013.6 0.0
17/10:00am 9.4 8.0 9.4 100 0.0 W 7 11 4 6 1013.2 1013.5 0.0
17/09:30am 9.2 7.7 9.2 100 0.0 W 7 13 4 7 1013.0 1013.3 0.0
17/09:00am 9.1 7.8 9.1 100 0.0 W 6 7 3 4 1012.7 1013.0 0.8
17/08:30am 8.7 7.1 8.7 100 0.0 W 7 13 4 7 1012.6 1012.9 0.8
17/08:00am 8.6 7.1 8.6 100 0.0 W 6 7 3 4 1012.2 1012.5 0.8
17/07:30am 8.2 7.8 8.2 100 0.0 CALM 0 4 0 2 1012.0 1012.3 0.8
17/07:00am 8.1 7.7 8.1 100 0.0 CALM 0 0 0 0 1011.8 1012.1 0.8
17/06:30am 8.1 7.7 8.1 100 0.0 CALM 0 0 0 0 1011.7 1012.0 0.8
17/06:00am 7.9 6.7 7.9 100 0.0 NW 4 6 2 3 1011.6 1011.9 0.8
17/05:30am 7.1 5.3 7.1 100 0.0 N 6 6 3 3 1011.2 1011.6 0.8
17/05:00am 6.7 4.6 6.7 100 0.0 N 7 7 4 4 1011.1 1011.5 0.8
17/04:30am 5.7 4.0 5.7 100 0.0 N 4 7 2 4 1011.1 1011.5 0.8
17/04:00am 5.6 3.5 5.6 100 0.0 N 6 7 3 4 1011.0 1011.4 0.8
17/03:30am 6.2 4.2 6.2 100 0.0 NW 6 9 3 5 1011.1 1011.5 0.8
17/03:00am 6.2 3.6 6.2 100 0.0 NW 9 11 5 6 1010.9 1011.3 0.8
17/02:30am 4.8 2.3 4.8 100 0.0 NNW 7 9 4 5 1010.8 1011.2 0.8
17/02:00am 3.9 1.2 3.9 100 0.0 NNW 7 9 4 5 1010.9 1011.3 0.8
17/01:30am 4.9 2.6 4.9 100 0.0 N 6 7 3 4 1010.9 1011.3 0.8
17/01:00am 4.6 2.3 4.6 100 0.0 N 6 7 3 4 1010.9 1011.3 0.8
17/12:30am 5.5 3.7 5.5 100 0.0 NW 4 7 2 4 1011.1 1011.5 0.8
17/12:00am 5.1 3.2 5.1 100 0.0 NNW 4 7 2 4 1011.3 1011.7 0.8
 
Date/Time
EST
Temp
°C
App
Temp
°C
Dew
Point
°C
Rel
Hum
%
Delta-T
°C
Wind Press
QNH
hPa
Press
MSL
hPa
Rain since
9am
mm
Dir  Spd
km/h
Gust
km/h
Spd
kts
Gust
kts
16/11:30pm 5.8 4.1 5.8 100 0.0 NW 4 6 2 3 1011.4 1011.8 0.8
16/11:00pm 6.9 5.8 6.9 100 0.0 NW 2 2 1 1 1011.6 1011.9 0.8
16/10:30pm 7.5 6.2 7.5 100 0.0 NW 4 6 2 3 1011.4 1011.8 0.8
16/10:00pm 9.0 8.0 8.9 99 0.0 SW 4 7 2 4 1011.3 1011.7 0.8
16/09:30pm 9.2 7.8 8.7 97 0.2 SSW 6 6 3 3 1011.2 1011.6 0.8
16/09:00pm 9.4 8.0 8.8 96 0.3 SW 6 7 3 4 1010.9 1011.3 0.8
16/08:30pm 9.7 8.3 8.8 94 0.4 SSW 6 9 3 5 1010.7 1011.1 0.8
16/08:00pm 10.4 9.0 9.5 94 0.5 SSW 7 13 4 7 1010.5 1010.9 0.8
16/07:30pm 10.2 8.8 9.6 96 0.3 SSW 7 11 4 6 1010.3 1010.7 0.8
16/07:00pm 10.3 9.0 9.8 97 0.3 SSW 7 11 4 6 1009.9 1010.2 0.8
16/06:30pm 10.4 9.6 9.8 96 0.3 S 4 6 2 3 1009.7 1010.0 0.8
16/06:00pm 10.6 9.5 9.8 95 0.4 S 6 9 3 5 1009.3 1009.6 0.8
16/05:30pm 10.8 9.7 10.0 95 0.4 S 6 7 3 4 1008.8 1009.1 0.8
16/05:00pm 11.2 10.5 10.0 92 0.6 SSE 4 6 2 3 1008.7 1009.0 0.8
16/04:30pm 11.7 9.7 10.3 91 0.7 S 11 15 6 8 1008.4 1008.7 0.8
16/04:00pm 12.2 11.3 11.3 94 0.5 SSE 7 11 4 6 1008.1 1008.4 0.8
16/03:30pm 12.1 11.0 11.8 98 0.2 S 9 13 5 7 1007.9 1008.2 0.8
16/03:00pm 12.6 11.1 10.7 88 1.0 SSW 9 15 5 8 1007.7 1008.0 0.0
16/02:30pm 12.2 10.9 11.1 93 0.6 SSW 9 19 5 10 1007.6 1007.9 0.0
16/02:00pm 12.0 9.8 10.9 93 0.6 SSW 13 22 7 12 1007.5 1007.8 0.0
16/01:30pm 12.4 10.5 10.5 88 1.0 SSW 11 17 6 9 1007.4 1007.7 0.0
16/01:00pm 12.2 10.3 10.6 90 0.8 SW 11 17 6 9 1007.6 1007.9 0.0
16/12:30pm 11.8 10.1 11.2 96 0.3 SW 11 17 6 9 1007.9 1008.2 0.0
16/12:00pm 11.8 10.0 11.0 95 0.4 SW 11 17 6 9 1008.1 1008.4 0.0
16/11:30am 11.6 9.9 11.3 98 0.2 SW 11 19 6 10 1008.3 1008.6 0.0
16/11:00am 11.3 9.6 11.3 100 0.0 SSW 11 17 6 9 1008.2 1008.5 0.0
16/10:30am 10.8 9.4 10.8 100 0.0 SSW 9 17 5 9 1008.0 1008.3 0.0
16/10:00am 10.5 8.6 10.5 100 0.0 SW 11 19 6 10 1007.8 1008.1 0.0
16/09:30am 10.4 8.9 10.4 100 0.0 SW 9 17 5 9 1007.4 1007.7 0.0
16/09:00am 10.1 8.1 10.1 100 0.0 SW 11 17 6 9 1006.9 1007.3 10.0
16/08:30am 9.9 7.5 9.9 100 0.0 SSW 13 19 7 10 1006.4 1006.7 10.0
16/08:00am 9.8 8.1 9.8 100 0.0 SSW 9 15 5 8 1006.2 1006.5 10.0
16/07:30am 9.8 7.3 9.8 100 0.0 SSW 13 19 7 10 1005.9 1006.2 10.0
16/07:00am 9.9 7.5 9.9 100 0.0 SW 13 19 7 10 1005.6 1005.9 10.0
16/06:30am 9.9 7.8 9.9 100 0.0 SSW 11 20 6 11 1005.2 1005.5 10.0
16/06:00am 9.8 7.3 9.8 100 0.0 SSW 13 20 7 11 1004.9 1005.2 9.8
16/05:30am 9.8 7.3 9.8 100 0.0 SSW 13 17 7 9 1004.6 1004.9 9.8
16/05:00am 9.8 6.6 9.8 100 0.0 SSW 17 26 9 14 1004.2 1004.5 8.8
16/04:30am 9.9 6.3 9.9 100 0.0 SSW 19 32 10 17 1003.9 1004.2 8.8
16/04:00am 9.7 6.1 9.7 100 0.0 SW 19 30 10 16 1003.7 1004.0 8.8
16/03:30am 9.5 6.9 9.5 100 0.0 SW 13 24 7 13 1003.4 1003.7 8.8
16/03:00am 9.4 6.1 9.4 100 0.0 SW 17 26 9 14 1003.3 1003.6 7.8
16/02:30am 9.3 5.9 9.3 100 0.0 WSW 17 30 9 16 1003.0 1003.2 6.6
16/02:00am 9.1 5.7 9.1 100 0.0 WSW 17 33 9 18 1002.8 1003.0 6.6
16/01:30am 9.0 5.0 9.0 100 0.0 WSW 20 39 11 21 1002.5 1002.8 6.0
16/01:00am 8.8 3.6 8.8 100 0.0 WSW 26 41 14 22 1002.5 1002.8 5.4
16/12:30am 8.7 3.5 8.7 100 0.0 WSW 26 41 14 22 1002.6 1002.9 5.2
16/12:00am 8.6 3.3 8.6 100 0.0 WSW 26 43 14 23 1002.8 1003.0 5.0
 
Date/Time
EST
Temp
°C
App
Temp
°C
Dew
Point
°C
Rel
Hum
%
Delta-T
°C
Wind Press
QNH
hPa
Press
MSL
hPa
Rain since
9am
mm
Dir  Spd
km/h
Gust
km/h
Spd
kts
Gust
kts
15/11:40pm 8.6 3.0 8.6 100 0.0 WSW 28 48 15 26 1002.9 1003.1 4.8
15/11:30pm 8.5 3.6 8.5 100 0.0 WSW 24 39 13 21 1003.1 1003.3 4.6
15/11:00pm 8.5 3.2 8.5 100 0.0 WSW 26 41 14 22 1003.4 1003.7 4.2
15/10:30pm 8.5 4.4 8.5 100 0.0 WSW 20 43 11 23 1003.7 1004.0 3.6
15/10:00pm 8.5 4.0 8.5 100 0.0 WSW 22 44 12 24 1003.8 1004.1 3.6
15/09:30pm 8.3 3.4 8.3 100 0.0 WSW 24 39 13 21 1003.9 1004.2 3.6
15/09:00pm 8.3 3.0 8.3 100 0.0 WSW 26 41 14 22 1004.1 1004.4 3.6
15/08:30pm 8.1 2.7 8.1 100 0.0 W 26 43 14 23 1004.2 1004.5 3.6
15/08:00pm 8.0 2.6 8.0 100 0.0 W 26 43 14 23 1004.3 1004.6 3.6
15/07:30pm 8.0 1.8 8.0 100 0.0 W 30 44 16 24 1004.4 1004.7 3.6
15/07:00pm 8.0 2.2 7.9 99 0.0 W 28 46 15 25 1004.7 1005.0 3.6
15/06:30pm 7.9 2.5 7.9 100 0.0 W 26 39 14 21 1004.6 1004.9 3.6
15/06:00pm 7.9 2.9 7.9 100 0.0 W 24 37 13 20 1004.8 1005.1 3.6
15/05:30pm 7.9 2.1 7.9 100 0.0 W 28 43 15 23 1004.7 1005.0 3.4
15/05:00pm 8.0 3.0 8.0 100 0.0 W 24 37 13 20 1004.9 1005.2 2.8
15/04:30pm 8.0 3.4 8.0 100 0.0 WSW 22 32 12 17 1005.0 1005.3 2.6
15/04:00pm 7.9 2.9 7.9 100 0.0 WSW 24 39 13 21 1005.1 1005.4 2.0
15/03:30pm 7.8 3.1 7.8 100 0.0 W 22 39 12 21 1005.2 1005.5 1.2
15/03:00pm 7.9 3.4 7.1 95 0.4 W 20 32 11 17 1005.4 1005.7 0.8
15/02:30pm 8.1 3.4 5.9 86 1.0 WSW 20 37 11 20 1005.5 1005.8 0.4

Other formats

Comma delimited format used in spreadsheet applications
http://www.bom.gov.au/fwo/IDV60801/IDV60801.94863.axf

JavaScript Object Notation format (JSON) in row-major order
http://www.bom.gov.au/fwo/IDV60801/IDV60801.94863.json

Data quality

Most of these data are generated automatically and are frequently updated. Quality checks on data are not normally performed. It is possible for incorrect values to appear. Refer to information at About Latest Weather Observations and please check the disclaimer before using these data.